sensor_id;sensor_type;location;lat;lon;timestamp;pressure;altitude;pressure_sealevel;temperature
66180;BMP280;52986;44.028;20.466;2023-12-14T00:00:17;96778.88;;;11.28
66180;BMP280;52986;44.028;20.466;2023-12-14T00:02:43;96781.06;;;11.30
66180;BMP280;52986;44.028;20.466;2023-12-14T00:05:09;96794.00;;;11.31
66180;BMP280;52986;44.028;20.466;2023-12-14T00:07:34;96794.94;;;11.28
66180;BMP280;52986;44.028;20.466;2023-12-14T00:09:59;96800.50;;;11.24
66180;BMP280;52986;44.028;20.466;2023-12-14T00:12:25;96801.50;;;11.27
66180;BMP280;52986;44.028;20.466;2023-12-14T00:14:50;96813.19;;;11.24
66180;BMP280;52986;44.028;20.466;2023-12-14T00:17:16;96812.50;;;11.29
66180;BMP280;52986;44.028;20.466;2023-12-14T00:19:41;96814.91;;;11.27
66180;BMP280;52986;44.028;20.466;2023-12-14T00:22:08;96837.31;;;11.24
66180;BMP280;52986;44.028;20.466;2023-12-14T00:24:33;96827.22;;;11.19
66180;BMP280;52986;44.028;20.466;2023-12-14T00:26:58;96831.94;;;11.24
66180;BMP280;52986;44.028;20.466;2023-12-14T00:29:24;96851.34;;;11.19
66180;BMP280;52986;44.028;20.466;2023-12-14T00:31:49;96862.56;;;11.17
66180;BMP280;52986;44.028;20.466;2023-12-14T00:34:15;96873.19;;;11.12
66180;BMP280;52986;44.028;20.466;2023-12-14T00:36:40;96885.69;;;11.15
66180;BMP280;52986;44.028;20.466;2023-12-14T00:39:05;96883.00;;;11.15
66180;BMP280;52986;44.028;20.466;2023-12-14T00:41:31;96896.78;;;11.08
66180;BMP280;52986;44.028;20.466;2023-12-14T00:43:56;96895.03;;;11.05
66180;BMP280;52986;44.028;20.466;2023-12-14T00:46:22;96887.59;;;10.94
66180;BMP280;52986;44.028;20.466;2023-12-14T00:48:47;96893.00;;;11.00
66180;BMP280;52986;44.028;20.466;2023-12-14T00:51:12;96900.25;;;10.93
66180;BMP280;52986;44.028;20.466;2023-12-14T00:53:38;96896.09;;;10.92
66180;BMP280;52986;44.028;20.466;2023-12-14T00:56:03;96895.50;;;10.88
66180;BMP280;52986;44.028;20.466;2023-12-14T00:58:29;96898.41;;;10.85
66180;BMP280;52986;44.028;20.466;2023-12-14T01:00:54;96903.00;;;10.84
66180;BMP280;52986;44.028;20.466;2023-12-14T01:03:20;96908.66;;;10.86
66180;BMP280;52986;44.028;20.466;2023-12-14T01:05:46;96906.81;;;10.92
66180;BMP280;52986;44.028;20.466;2023-12-14T01:08:11;96902.19;;;10.93
66180;BMP280;52986;44.028;20.466;2023-12-14T01:10:37;96911.34;;;10.86
66180;BMP280;52986;44.028;20.466;2023-12-14T01:13:02;96905.69;;;10.84
66180;BMP280;52986;44.028;20.466;2023-12-14T01:15:27;96912.81;;;10.87
66180;BMP280;52986;44.028;20.466;2023-12-14T01:17:53;96908.75;;;10.92
66180;BMP280;52986;44.028;20.466;2023-12-14T01:20:18;96912.66;;;10.96
66180;BMP280;52986;44.028;20.466;2023-12-14T01:22:44;96917.06;;;10.94
66180;BMP280;52986;44.028;20.466;2023-12-14T01:25:09;96918.25;;;10.93
66180;BMP280;52986;44.028;20.466;2023-12-14T01:27:35;96909.75;;;10.94
66180;BMP280;52986;44.028;20.466;2023-12-14T01:30:00;96917.06;;;10.94
66180;BMP280;52986;44.028;20.466;2023-12-14T01:32:25;96926.47;;;10.89
66180;BMP280;52986;44.028;20.466;2023-12-14T01:34:51;96922.31;;;10.88
66180;BMP280;52986;44.028;20.466;2023-12-14T01:37:16;96905.75;;;10.90
66180;BMP280;52986;44.028;20.466;2023-12-14T01:39:42;96904.50;;;10.85
66180;BMP280;52986;44.028;20.466;2023-12-14T01:42:07;96903.47;;;10.83
66180;BMP280;52986;44.028;20.466;2023-12-14T01:44:33;96916.13;;;10.82
66180;BMP280;52986;44.028;20.466;2023-12-14T01:46:58;96919.75;;;10.79
66180;BMP280;52986;44.028;20.466;2023-12-14T01:49:23;96908.00;;;10.77
66180;BMP280;52986;44.028;20.466;2023-12-14T01:51:49;96911.69;;;10.79
66180;BMP280;52986;44.028;20.466;2023-12-14T01:54:14;96918.91;;;10.73
66180;BMP280;52986;44.028;20.466;2023-12-14T01:56:40;96927.88;;;10.70
66180;BMP280;52986;44.028;20.466;2023-12-14T01:59:06;96913.75;;;10.70
66180;BMP280;52986;44.028;20.466;2023-12-14T02:01:47;96913.50;;;10.68
66180;BMP280;52986;44.028;20.466;2023-12-14T02:04:17;96918.66;;;10.71
66180;BMP280;52986;44.028;20.466;2023-12-14T02:06:42;96912.06;;;10.72
66180;BMP280;52986;44.028;20.466;2023-12-14T02:09:08;96915.69;;;10.69
66180;BMP280;52986;44.028;20.466;2023-12-14T02:11:34;96920.78;;;10.67
66180;BMP280;52986;44.028;20.466;2023-12-14T02:14:06;96891.41;;;10.73
66180;BMP280;52986;44.028;20.466;2023-12-14T02:16:32;96896.00;;;10.72
66180;BMP280;52986;44.028;20.466;2023-12-14T02:18:58;96907.38;;;10.67
66180;BMP280;52986;44.028;20.466;2023-12-14T02:21:23;96913.09;;;10.60
66180;BMP280;52986;44.028;20.466;2023-12-14T02:23:49;96910.16;;;10.58
66180;BMP280;52986;44.028;20.466;2023-12-14T02:26:14;96896.75;;;10.58
66180;BMP280;52986;44.028;20.466;2023-12-14T02:28:40;96911.34;;;10.57
66180;BMP280;52986;44.028;20.466;2023-12-14T02:31:05;96920.31;;;10.54
66180;BMP280;52986;44.028;20.466;2023-12-14T02:33:31;96907.69;;;10.54
66180;BMP280;52986;44.028;20.466;2023-12-14T02:35:56;96891.88;;;10.56
66180;BMP280;52986;44.028;20.466;2023-12-14T02:38:22;96894.31;;;10.54
66180;BMP280;52986;44.028;20.466;2023-12-14T02:40:47;96898.53;;;10.46
66180;BMP280;52986;44.028;20.466;2023-12-14T02:43:15;96899.00;;;10.45
66180;BMP280;52986;44.028;20.466;2023-12-14T02:45:41;96915.78;;;10.45
66180;BMP280;52986;44.028;20.466;2023-12-14T02:48:06;96905.81;;;10.46
66180;BMP280;52986;44.028;20.466;2023-12-14T02:50:32;96931.38;;;10.47
66180;BMP280;52986;44.028;20.466;2023-12-14T02:52:57;96910.53;;;10.51
66180;BMP280;52986;44.028;20.466;2023-12-14T02:55:23;96875.72;;;10.51
66180;BMP280;52986;44.028;20.466;2023-12-14T02:57:48;96925.59;;;10.48
66180;BMP280;52986;44.028;20.466;2023-12-14T03:00:14;96931.28;;;10.56
66180;BMP280;52986;44.028;20.466;2023-12-14T03:02:39;96863.44;;;10.59
66180;BMP280;52986;44.028;20.466;2023-12-14T03:05:05;96954.56;;;10.64
66180;BMP280;52986;44.028;20.466;2023-12-14T03:07:31;96933.34;;;10.61
66180;BMP280;52986;44.028;20.466;2023-12-14T03:09:56;96857.91;;;10.62
66180;BMP280;52986;44.028;20.466;2023-12-14T03:12:21;96987.88;;;10.63
66180;BMP280;52986;44.028;20.466;2023-12-14T03:14:47;96927.69;;;10.59
66180;BMP280;52986;44.028;20.466;2023-12-14T03:17:12;96949.41;;;10.61
66180;BMP280;52986;44.028;20.466;2023-12-14T03:19:41;97014.03;;;10.69
66180;BMP280;52986;44.028;20.466;2023-12-14T03:22:08;96927.78;;;10.64
66180;BMP280;52986;44.028;20.466;2023-12-14T03:24:35;96967.84;;;10.59
66180;BMP280;52986;44.028;20.466;2023-12-14T03:27:01;96999.63;;;10.51
66180;BMP280;52986;44.028;20.466;2023-12-14T03:29:27;96967.41;;;10.46
66180;BMP280;52986;44.028;20.466;2023-12-14T03:31:54;97007.28;;;10.44
66180;BMP280;52986;44.028;20.466;2023-12-14T03:34:20;96982.34;;;10.38
66180;BMP280;52986;44.028;20.466;2023-12-14T03:36:45;96985.03;;;10.38
66180;BMP280;52986;44.028;20.466;2023-12-14T03:39:11;96989.16;;;10.39
66180;BMP280;52986;44.028;20.466;2023-12-14T03:41:37;97012.69;;;10.34
66180;BMP280;52986;44.028;20.466;2023-12-14T03:44:02;97026.53;;;10.33
66180;BMP280;52986;44.028;20.466;2023-12-14T03:46:29;97012.13;;;10.30
66180;BMP280;52986;44.028;20.466;2023-12-14T03:48:54;97017.47;;;10.30
66180;BMP280;52986;44.028;20.466;2023-12-14T03:51:20;97023.75;;;10.27
66180;BMP280;52986;44.028;20.466;2023-12-14T03:53:45;97040.72;;;10.24
66180;BMP280;52986;44.028;20.466;2023-12-14T03:56:11;97039.69;;;10.22
66180;BMP280;52986;44.028;20.466;2023-12-14T03:58:36;97047.25;;;10.23
66180;BMP280;52986;44.028;20.466;2023-12-14T04:01:02;97060.63;;;10.23
66180;BMP280;52986;44.028;20.466;2023-12-14T04:03:27;97055.13;;;10.27
66180;BMP280;52986;44.028;20.466;2023-12-14T04:05:53;97052.34;;;10.21
66180;BMP280;52986;44.028;20.466;2023-12-14T04:08:18;97047.91;;;10.18
66180;BMP280;52986;44.028;20.466;2023-12-14T04:10:44;97049.53;;;10.16
66180;BMP280;52986;44.028;20.466;2023-12-14T04:13:09;97081.09;;;10.12
66180;BMP280;52986;44.028;20.466;2023-12-14T04:15:34;97082.88;;;10.06
66180;BMP280;52986;44.028;20.466;2023-12-14T04:18:00;97081.72;;;10.07
66180;BMP280;52986;44.028;20.466;2023-12-14T04:20:25;97082.16;;;10.05
66180;BMP280;52986;44.028;20.466;2023-12-14T04:22:51;97094.34;;;10.06
66180;BMP280;52986;44.028;20.466;2023-12-14T04:25:16;97109.84;;;10.02
66180;BMP280;52986;44.028;20.466;2023-12-14T04:27:42;97116.81;;;9.99
66180;BMP280;52986;44.028;20.466;2023-12-14T04:30:07;97129.63;;;9.95
66180;BMP280;52986;44.028;20.466;2023-12-14T04:32:37;97117.16;;;9.92
66180;BMP280;52986;44.028;20.466;2023-12-14T04:35:04;97119.81;;;9.92
66180;BMP280;52986;44.028;20.466;2023-12-14T04:37:29;97124.75;;;9.94
66180;BMP280;52986;44.028;20.466;2023-12-14T04:39:56;97122.66;;;9.89
66180;BMP280;52986;44.028;20.466;2023-12-14T04:42:22;97107.03;;;9.87
66180;BMP280;52986;44.028;20.466;2023-12-14T04:44:47;97113.78;;;9.83
66180;BMP280;52986;44.028;20.466;2023-12-14T04:47:13;97123.16;;;9.78
66180;BMP280;52986;44.028;20.466;2023-12-14T04:49:39;97135.78;;;9.78
66180;BMP280;52986;44.028;20.466;2023-12-14T04:52:04;97131.44;;;9.80
66180;BMP280;52986;44.028;20.466;2023-12-14T04:54:30;97137.25;;;9.69
66180;BMP280;52986;44.028;20.466;2023-12-14T04:56:56;97132.97;;;9.72
66180;BMP280;52986;44.028;20.466;2023-12-14T04:59:21;97131.91;;;9.69
66180;BMP280;52986;44.028;20.466;2023-12-14T05:01:47;97135.81;;;9.68
66180;BMP280;52986;44.028;20.466;2023-12-14T05:04:12;97134.34;;;9.67
66180;BMP280;52986;44.028;20.466;2023-12-14T05:06:38;97115.47;;;9.62
66180;BMP280;52986;44.028;20.466;2023-12-14T05:09:04;97112.97;;;9.58
66180;BMP280;52986;44.028;20.466;2023-12-14T05:11:31;97128.38;;;9.63
66180;BMP280;52986;44.028;20.466;2023-12-14T05:13:56;97134.03;;;9.65
66180;BMP280;52986;44.028;20.466;2023-12-14T05:16:23;97142.63;;;9.69
66180;BMP280;52986;44.028;20.466;2023-12-14T05:18:52;97145.78;;;9.68
66180;BMP280;52986;44.028;20.466;2023-12-14T05:21:18;97148.59;;;9.64
66180;BMP280;52986;44.028;20.466;2023-12-14T05:23:43;97139.97;;;9.60
66180;BMP280;52986;44.028;20.466;2023-12-14T05:26:09;97140.00;;;9.51
66180;BMP280;52986;44.028;20.466;2023-12-14T05:28:34;97151.31;;;9.46
66180;BMP280;52986;44.028;20.466;2023-12-14T05:31:00;97132.00;;;9.42
66180;BMP280;52986;44.028;20.466;2023-12-14T05:33:26;97128.16;;;9.34
66180;BMP280;52986;44.028;20.466;2023-12-14T05:35:51;97129.06;;;9.31
66180;BMP280;52986;44.028;20.466;2023-12-14T05:38:17;97148.19;;;9.38
66180;BMP280;52986;44.028;20.466;2023-12-14T05:40:42;97166.63;;;9.36
66180;BMP280;52986;44.028;20.466;2023-12-14T05:43:09;97168.53;;;9.36
66180;BMP280;52986;44.028;20.466;2023-12-14T05:45:35;97186.19;;;9.42
66180;BMP280;52986;44.028;20.466;2023-12-14T05:48:01;97178.19;;;9.42
66180;BMP280;52986;44.028;20.466;2023-12-14T05:50:27;97165.28;;;9.41
66180;BMP280;52986;44.028;20.466;2023-12-14T05:52:53;97137.97;;;9.37
66180;BMP280;52986;44.028;20.466;2023-12-14T05:55:18;97139.88;;;9.36
66180;BMP280;52986;44.028;20.466;2023-12-14T05:57:47;97132.63;;;9.37
66180;BMP280;52986;44.028;20.466;2023-12-14T06:00:13;97130.56;;;9.41
66180;BMP280;52986;44.028;20.466;2023-12-14T06:02:39;97158.88;;;9.38
66180;BMP280;52986;44.028;20.466;2023-12-14T06:05:06;97180.72;;;9.37
66180;BMP280;52986;44.028;20.466;2023-12-14T06:07:32;97186.34;;;9.39
66180;BMP280;52986;44.028;20.466;2023-12-14T06:09:57;97185.75;;;9.53
66180;BMP280;52986;44.028;20.466;2023-12-14T06:12:23;97189.31;;;9.50
66180;BMP280;52986;44.028;20.466;2023-12-14T06:14:48;97198.78;;;9.51
66180;BMP280;52986;44.028;20.466;2023-12-14T06:17:13;97198.09;;;9.41
66180;BMP280;52986;44.028;20.466;2023-12-14T06:19:39;97201.81;;;9.35
66180;BMP280;52986;44.028;20.466;2023-12-14T06:22:04;97193.47;;;9.24
66180;BMP280;52986;44.028;20.466;2023-12-14T06:24:30;97183.69;;;9.21
66180;BMP280;52986;44.028;20.466;2023-12-14T06:26:55;97188.44;;;9.17
66180;BMP280;52986;44.028;20.466;2023-12-14T06:29:21;97198.25;;;9.20
66180;BMP280;52986;44.028;20.466;2023-12-14T06:31:46;97197.19;;;9.08
66180;BMP280;52986;44.028;20.466;2023-12-14T06:34:12;97189.63;;;9.06
66180;BMP280;52986;44.028;20.466;2023-12-14T06:36:41;97186.50;;;8.99
66180;BMP280;52986;44.028;20.466;2023-12-14T06:39:07;97186.38;;;9.11
66180;BMP280;52986;44.028;20.466;2023-12-14T06:41:32;97184.44;;;9.12
66180;BMP280;52986;44.028;20.466;2023-12-14T06:43:58;97200.19;;;9.10
66180;BMP280;52986;44.028;20.466;2023-12-14T06:46:23;97207.59;;;9.15
66180;BMP280;52986;44.028;20.466;2023-12-14T06:48:49;97214.28;;;9.20
66180;BMP280;52986;44.028;20.466;2023-12-14T06:51:14;97194.09;;;9.19
66180;BMP280;52986;44.028;20.466;2023-12-14T06:53:41;97189.63;;;9.16
66180;BMP280;52986;44.028;20.466;2023-12-14T06:56:08;97175.53;;;9.15
66180;BMP280;52986;44.028;20.466;2023-12-14T06:58:38;97177.91;;;9.13
66180;BMP280;52986;44.028;20.466;2023-12-14T07:01:04;97196.63;;;9.13
66180;BMP280;52986;44.028;20.466;2023-12-14T07:03:31;97197.50;;;9.19
66180;BMP280;52986;44.028;20.466;2023-12-14T07:05:56;97204.47;;;9.26
66180;BMP280;52986;44.028;20.466;2023-12-14T07:08:22;97203.28;;;9.27
66180;BMP280;52986;44.028;20.466;2023-12-14T07:10:48;97194.09;;;9.28
66180;BMP280;52986;44.028;20.466;2023-12-14T07:13:14;97186.94;;;9.25
66180;BMP280;52986;44.028;20.466;2023-12-14T07:15:39;97196.13;;;9.33
66180;BMP280;52986;44.028;20.466;2023-12-14T07:18:04;97202.25;;;9.33
66180;BMP280;52986;44.028;20.466;2023-12-14T07:20:30;97205.22;;;9.35
66180;BMP280;52986;44.028;20.466;2023-12-14T07:22:55;97192.16;;;9.37
66180;BMP280;52986;44.028;20.466;2023-12-14T07:25:21;97196.16;;;9.42
66180;BMP280;52986;44.028;20.466;2023-12-14T07:27:46;97196.75;;;9.46
66180;BMP280;52986;44.028;20.466;2023-12-14T07:30:12;97200.16;;;9.47
66180;BMP280;52986;44.028;20.466;2023-12-14T07:32:38;97194.22;;;9.52
66180;BMP280;52986;44.028;20.466;2023-12-14T07:35:04;97181.44;;;9.56
66180;BMP280;52986;44.028;20.466;2023-12-14T07:37:30;97184.53;;;9.63
66180;BMP280;52986;44.028;20.466;2023-12-14T07:39:55;97184.66;;;9.69
66180;BMP280;52986;44.028;20.466;2023-12-14T07:42:21;97186.59;;;9.78
66180;BMP280;52986;44.028;20.466;2023-12-14T07:44:46;97190.72;;;9.88
66180;BMP280;52986;44.028;20.466;2023-12-14T07:47:12;97185.66;;;9.90
66180;BMP280;52986;44.028;20.466;2023-12-14T07:49:37;97180.91;;;9.94
66180;BMP280;52986;44.028;20.466;2023-12-14T07:52:03;97183.81;;;10.05
66180;BMP280;52986;44.028;20.466;2023-12-14T07:54:29;97185.88;;;10.10
66180;BMP280;52986;44.028;20.466;2023-12-14T07:56:54;97191.06;;;10.14
66180;BMP280;52986;44.028;20.466;2023-12-14T07:59:20;97184.53;;;10.06
66180;BMP280;52986;44.028;20.466;2023-12-14T08:01:47;97195.59;;;9.98
66180;BMP280;52986;44.028;20.466;2023-12-14T08:04:12;97202.28;;;10.03
66180;BMP280;52986;44.028;20.466;2023-12-14T08:06:38;97192.16;;;10.07
66180;BMP280;52986;44.028;20.466;2023-12-14T08:09:04;97187.41;;;10.02
66180;BMP280;52986;44.028;20.466;2023-12-14T08:11:31;97187.69;;;10.04
66180;BMP280;52986;44.028;20.466;2023-12-14T08:13:57;97187.56;;;9.98
66180;BMP280;52986;44.028;20.466;2023-12-14T08:16:22;97196.31;;;9.99
66180;BMP280;52986;44.028;20.466;2023-12-14T08:18:48;97202.56;;;9.96
66180;BMP280;52986;44.028;20.466;2023-12-14T08:21:14;97232.91;;;9.93
66180;BMP280;52986;44.028;20.466;2023-12-14T08:23:39;97236.63;;;9.95
66180;BMP280;52986;44.028;20.466;2023-12-14T08:26:05;97244.34;;;10.02
66180;BMP280;52986;44.028;20.466;2023-12-14T08:28:30;97242.53;;;10.09
66180;BMP280;52986;44.028;20.466;2023-12-14T08:30:56;97245.34;;;10.05
66180;BMP280;52986;44.028;20.466;2023-12-14T08:33:27;97237.19;;;10.09
66180;BMP280;52986;44.028;20.466;2023-12-14T08:35:53;97250.09;;;10.10
66180;BMP280;52986;44.028;20.466;2023-12-14T08:38:18;97256.03;;;10.05
66180;BMP280;52986;44.028;20.466;2023-12-14T08:40:44;97255.78;;;10.03
66180;BMP280;52986;44.028;20.466;2023-12-14T08:43:09;97257.72;;;10.02
66180;BMP280;52986;44.028;20.466;2023-12-14T08:45:34;97259.94;;;10.04
66180;BMP280;52986;44.028;20.466;2023-12-14T08:48:00;97270.03;;;10.09
66180;BMP280;52986;44.028;20.466;2023-12-14T08:50:25;97264.69;;;10.09
66180;BMP280;52986;44.028;20.466;2023-12-14T08:52:53;97254.50;;;10.22
66180;BMP280;52986;44.028;20.466;2023-12-14T08:55:19;97240.09;;;10.29
66180;BMP280;52986;44.028;20.466;2023-12-14T08:57:44;97244.69;;;10.38
66180;BMP280;52986;44.028;20.466;2023-12-14T09:00:10;97255.81;;;10.36
66180;BMP280;52986;44.028;20.466;2023-12-14T09:02:36;97256.84;;;10.39
66180;BMP280;52986;44.028;20.466;2023-12-14T09:05:02;97257.59;;;10.39
66180;BMP280;52986;44.028;20.466;2023-12-14T09:07:27;97267.25;;;10.46
66180;BMP280;52986;44.028;20.466;2023-12-14T09:09:53;97266.00;;;10.56
66180;BMP280;52986;44.028;20.466;2023-12-14T09:12:19;97281.16;;;10.59
66180;BMP280;52986;44.028;20.466;2023-12-14T09:14:44;97278.78;;;10.61
66180;BMP280;52986;44.028;20.466;2023-12-14T09:17:10;97284.25;;;10.67
66180;BMP280;52986;44.028;20.466;2023-12-14T09:19:35;97277.06;;;10.73
66180;BMP280;52986;44.028;20.466;2023-12-14T09:22:01;97274.06;;;10.80
66180;BMP280;52986;44.028;20.466;2023-12-14T09:24:26;97290.28;;;10.85
66180;BMP280;52986;44.028;20.466;2023-12-14T09:26:52;97280.09;;;10.89
66180;BMP280;52986;44.028;20.466;2023-12-14T09:29:17;97277.38;;;10.99
66180;BMP280;52986;44.028;20.466;2023-12-14T09:31:43;97277.13;;;11.11
66180;BMP280;52986;44.028;20.466;2023-12-14T09:34:10;97278.09;;;11.23
66180;BMP280;52986;44.028;20.466;2023-12-14T09:36:36;97272.66;;;11.32
66180;BMP280;52986;44.028;20.466;2023-12-14T09:39:02;97270.03;;;11.47
66180;BMP280;52986;44.028;20.466;2023-12-14T09:41:28;97266.81;;;11.57
66180;BMP280;52986;44.028;20.466;2023-12-14T09:43:53;97275.13;;;11.74
66180;BMP280;52986;44.028;20.466;2023-12-14T09:46:20;97265.97;;;11.96
66180;BMP280;52986;44.028;20.466;2023-12-14T09:48:47;97274.59;;;12.14
66180;BMP280;52986;44.028;20.466;2023-12-14T09:51:14;97290.69;;;12.14
66180;BMP280;52986;44.028;20.466;2023-12-14T09:53:41;97294.06;;;12.30
66180;BMP280;52986;44.028;20.466;2023-12-14T09:56:06;97302.84;;;12.45
66180;BMP280;52986;44.028;20.466;2023-12-14T09:58:32;97301.72;;;12.51
66180;BMP280;52986;44.028;20.466;2023-12-14T10:00:58;97286.69;;;12.60
66180;BMP280;52986;44.028;20.466;2023-12-14T10:03:27;97279.19;;;12.64
66180;BMP280;52986;44.028;20.466;2023-12-14T10:05:57;97285.63;;;12.72
66180;BMP280;52986;44.028;20.466;2023-12-14T10:08:24;97273.31;;;12.80
66180;BMP280;52986;44.028;20.466;2023-12-14T10:10:52;97262.09;;;12.81
66180;BMP280;52986;44.028;20.466;2023-12-14T10:13:19;97280.69;;;12.85
66180;BMP280;52986;44.028;20.466;2023-12-14T10:15:46;97282.66;;;12.85
66180;BMP280;52986;44.028;20.466;2023-12-14T10:18:19;97282.97;;;12.92
66180;BMP280;52986;44.028;20.466;2023-12-14T10:20:46;97273.84;;;12.84
66180;BMP280;52986;44.028;20.466;2023-12-14T10:23:12;97279.63;;;12.77
66180;BMP280;52986;44.028;20.466;2023-12-14T10:25:38;97280.56;;;12.74
66180;BMP280;52986;44.028;20.466;2023-12-14T10:28:04;97299.28;;;12.68
66180;BMP280;52986;44.028;20.466;2023-12-14T10:30:29;97291.91;;;12.63
66180;BMP280;52986;44.028;20.466;2023-12-14T10:32:56;97307.09;;;12.51
66180;BMP280;52986;44.028;20.466;2023-12-14T10:35:21;97317.88;;;12.37
66180;BMP280;52986;44.028;20.466;2023-12-14T10:37:50;97322.72;;;12.18
66180;BMP280;52986;44.028;20.466;2023-12-14T10:40:16;97329.94;;;11.97
66180;BMP280;52986;44.028;20.466;2023-12-14T10:42:43;97327.31;;;11.73
66180;BMP280;52986;44.028;20.466;2023-12-14T10:45:13;97331.59;;;11.41
66180;BMP280;52986;44.028;20.466;2023-12-14T10:47:43;97319.41;;;11.40
66180;BMP280;52986;44.028;20.466;2023-12-14T10:50:10;97313.44;;;11.36
66180;BMP280;52986;44.028;20.466;2023-12-14T10:52:37;97319.41;;;11.40
66180;BMP280;52986;44.028;20.466;2023-12-14T10:55:07;97331.31;;;11.39
66180;BMP280;52986;44.028;20.466;2023-12-14T10:57:36;97327.03;;;11.33
66180;BMP280;52986;44.028;20.466;2023-12-14T11:00:05;97343.28;;;11.29
66180;BMP280;52986;44.028;20.466;2023-12-14T11:02:38;97339.78;;;11.14
66180;BMP280;52986;44.028;20.466;2023-12-14T11:05:05;97328.19;;;11.17
66180;BMP280;52986;44.028;20.466;2023-12-14T11:07:50;97333.19;;;11.24
66180;BMP280;52986;44.028;20.466;2023-12-14T11:10:42;97316.75;;;11.31
66180;BMP280;52986;44.028;20.466;2023-12-14T11:13:09;97320.13;;;11.41
66180;BMP280;52986;44.028;20.466;2023-12-14T11:15:36;97317.16;;;11.39
66180;BMP280;52986;44.028;20.466;2023-12-14T11:23:15;97297.81;;;11.35
66180;BMP280;52986;44.028;20.466;2023-12-14T11:25:42;97301.84;;;11.39
66180;BMP280;52986;44.028;20.466;2023-12-14T11:28:08;97296.03;;;11.55
66180;BMP280;52986;44.028;20.466;2023-12-14T11:30:35;97296.06;;;11.70
66180;BMP280;52986;44.028;20.466;2023-12-14T11:33:00;97299.66;;;11.82
66180;BMP280;52986;44.028;20.466;2023-12-14T11:35:26;97296.81;;;11.85
66180;BMP280;52986;44.028;20.466;2023-12-14T11:37:51;97300.22;;;11.86
66180;BMP280;52986;44.028;20.466;2023-12-14T11:40:17;97304.00;;;11.79
66180;BMP280;52986;44.028;20.466;2023-12-14T11:43:03;97314.38;;;11.72
66180;BMP280;52986;44.028;20.466;2023-12-14T11:45:34;97316.66;;;11.64
66180;BMP280;52986;44.028;20.466;2023-12-14T11:48:01;97317.00;;;11.57
66180;BMP280;52986;44.028;20.466;2023-12-14T11:50:30;97316.94;;;11.51
66180;BMP280;52986;44.028;20.466;2023-12-14T11:52:55;97316.34;;;11.47
66180;BMP280;52986;44.028;20.466;2023-12-14T11:55:21;97317.25;;;11.44
66180;BMP280;52986;44.028;20.466;2023-12-14T11:57:47;97318.19;;;11.41
66180;BMP280;52986;44.028;20.466;2023-12-14T12:00:13;97307.47;;;11.41
66180;BMP280;52986;44.028;20.466;2023-12-14T12:02:39;97315.66;;;11.38
66180;BMP280;52986;44.028;20.466;2023-12-14T12:05:06;97318.34;;;11.38
66180;BMP280;52986;44.028;20.466;2023-12-14T12:07:32;97308.09;;;11.36
66180;BMP280;52986;44.028;20.466;2023-12-14T12:09:58;97316.47;;;11.29
66180;BMP280;52986;44.028;20.466;2023-12-14T12:12:24;97320.53;;;11.24
66180;BMP280;52986;44.028;20.466;2023-12-14T12:14:49;97326.81;;;11.21
66180;BMP280;52986;44.028;20.466;2023-12-14T12:17:18;97324.56;;;11.20
66180;BMP280;52986;44.028;20.466;2023-12-14T12:19:45;97318.66;;;11.16
66180;BMP280;52986;44.028;20.466;2023-12-14T12:22:11;97321.69;;;11.09
66180;BMP280;52986;44.028;20.466;2023-12-14T12:24:36;97322.59;;;11.06
66180;BMP280;52986;44.028;20.466;2023-12-14T12:27:02;97322.31;;;11.04
66180;BMP280;52986;44.028;20.466;2023-12-14T12:29:29;97317.69;;;11.04
66180;BMP280;52986;44.028;20.466;2023-12-14T12:31:55;97330.63;;;11.06
66180;BMP280;52986;44.028;20.466;2023-12-14T12:34:20;97324.69;;;11.02
66180;BMP280;52986;44.028;20.466;2023-12-14T12:36:46;97330.66;;;10.96
66180;BMP280;52986;44.028;20.466;2023-12-14T12:39:12;97336.22;;;10.93
66180;BMP280;52986;44.028;20.466;2023-12-14T12:41:37;97326.56;;;10.86
66180;BMP280;52986;44.028;20.466;2023-12-14T12:44:04;97330.16;;;10.83
66180;BMP280;52986;44.028;20.466;2023-12-14T12:46:36;97335.34;;;10.87
66180;BMP280;52986;44.028;20.466;2023-12-14T12:49:03;97341.72;;;10.89
66180;BMP280;52986;44.028;20.466;2023-12-14T12:51:29;97337.41;;;10.92
66180;BMP280;52986;44.028;20.466;2023-12-14T12:53:56;97351.88;;;10.85
66180;BMP280;52986;44.028;20.466;2023-12-14T12:56:23;97361.25;;;10.81
66180;BMP280;52986;44.028;20.466;2023-12-14T12:58:49;97368.38;;;10.84
66180;BMP280;52986;44.028;20.466;2023-12-14T13:01:15;97374.81;;;10.77
66180;BMP280;52986;44.028;20.466;2023-12-14T13:03:41;97368.56;;;10.80
66180;BMP280;52986;44.028;20.466;2023-12-14T13:06:06;97381.84;;;10.75
66180;BMP280;52986;44.028;20.466;2023-12-14T13:08:32;97381.25;;;10.71
66180;BMP280;52986;44.028;20.466;2023-12-14T13:10:57;97381.84;;;10.65
66180;BMP280;52986;44.028;20.466;2023-12-14T13:13:22;97386.66;;;10.61
66180;BMP280;52986;44.028;20.466;2023-12-14T13:15:48;97383.22;;;10.61
66180;BMP280;52986;44.028;20.466;2023-12-14T13:18:14;97394.38;;;10.59
66180;BMP280;52986;44.028;20.466;2023-12-14T13:20:42;97393.94;;;10.52
66180;BMP280;52986;44.028;20.466;2023-12-14T13:23:07;97393.06;;;10.46
66180;BMP280;52986;44.028;20.466;2023-12-14T13:25:33;97395.28;;;10.47
66180;BMP280;52986;44.028;20.466;2023-12-14T13:27:59;97389.03;;;10.50
66180;BMP280;52986;44.028;20.466;2023-12-14T13:30:24;97390.97;;;10.50
66180;BMP280;52986;44.028;20.466;2023-12-14T13:32:50;97387.13;;;10.42
66180;BMP280;52986;44.028;20.466;2023-12-14T13:35:16;97403.16;;;10.42
66180;BMP280;52986;44.028;20.466;2023-12-14T13:37:41;97406.91;;;10.35
66180;BMP280;52986;44.028;20.466;2023-12-14T13:40:07;97400.06;;;10.34
66180;BMP280;52986;44.028;20.466;2023-12-14T13:42:35;97402.91;;;10.30
66180;BMP280;52986;44.028;20.466;2023-12-14T13:45:00;97417.47;;;10.29
66180;BMP280;52986;44.028;20.466;2023-12-14T13:47:26;97420.31;;;10.26
66180;BMP280;52986;44.028;20.466;2023-12-14T13:49:51;97425.66;;;10.26
66180;BMP280;52986;44.028;20.466;2023-12-14T13:52:18;97427.03;;;10.21
66180;BMP280;52986;44.028;20.466;2023-12-14T13:54:43;97428.34;;;10.26
66180;BMP280;52986;44.028;20.466;2023-12-14T13:57:09;97427.28;;;10.23